首页
METAR-TAF:

METAR-TAF

机场 :

Rawlins Municipal Airport (Harvey Field)

Rawlins, 怀俄明州, 美国

纬度: 41-48-20N, 经度: 107-11-59W, 海拔: 2077米

当前天气观测

该预报发布于26分钟前的15:53 UTC
风速17节,风向西转西南
温度 -9°C
湿度 67%
气压 1015 hPa
能見度: 16.1公里
多云层高于4800英尺
阴天层高于6500英尺

METAR: KRWL 171553Z AUTO 25017KT 10SM BKN048 OVC065 M09/M14 A2998 RMK AO2 SLP191 T10941144 TSNO

时间: 09:19 (16:19 UTC)

预报

该预报发布于4小时和57分钟前的11:22 UTC
预报有效从17日的 12点(UTC)到 18日的 12点(UTC)
风速15节,风向西,有时为25节阵风
能見度: 10公里
少量云层高于9000英尺
附近有阵雨
从 17日的 1800点(UTC)
风速15节,风向西
能見度: 10公里
少量云层高于12000英尺
从 17日的 2300点(UTC)
风速10节,风向西
能見度: 10公里
阴天层高于15000英尺

TAF: KRWL 171122Z 1712/1812 26015G25KT P6SM VCSH FEW090 FM171800 26015KT P6SM FEW120 FM172300 26010KT P6SM OVC150

超过4000个机场的气象观测和天气预报(METAR&TAF报告)。

可查询的气象台以黄色和红色小点在地图上表示。

将鼠标移到小点上方,可查看气象台名称。

然后点击查看天气观测和预报。

如需切换地图:点击带黑十字的绿色按钮放大地图;点击带横线的绿色按钮缩小地图;或者点击绿色箭头查看邻近地区的地图。


METAR-TAF: